Barbara Foss — WYL4318 — position and weather

sailwx.info

Track history (hours):
 
Tides and Currents Weather Stations Pressure Air Temp Water Temp Dewpoint Dewpoint Depression Visibility Wind Speed Wind Dir Waves Ship Positions

Barbara Foss

More information available from US FCC via Universal Licensing System and Coast Guard Vessel Documentation Center.

Last reported at 2014-Sep-23 20:00 UTC. Time now 2014-Sep-24 00:27 UTC.
Position N 59°24' W 141°48'.

Length 39 m; draft 5.5 m.

Type: Tow > 200 m length. MMSI: 366932130.

Wind from 100 at 5 knots

Barometer 1010.4 mb
Air temperature 15.6 ° C
Visibility: greater than 5.4 NM

Date/timePositionNaut miles runAvg speedWind from/ knotsBaromVisibWave heightAir tempDewpointWater temp
2014-Sep-23 20:00N 59°24' W 141°48'163 7.4 100 / 51010.4 5.4 15.6
2014-Sep-22 22:00N 58°18' W 137°00'35 4.7 180 / 181007.1 5.4 0.514.4
2014-Sep-22 14:25N 58°17' W 135°53'5 5.8
2014-Sep-22 13:33N 58°18' W 135°43'  
2014-Sep-20 04:31N 54°23' W 130°37'8 8.3
2014-Sep-20 03:33N 54°16' W 130°31'6 4.8
2014-Sep-20 02:23N 54°16' W 130°21'2 2.7
2014-Sep-20 01:31N 54°18' W 130°21'0 0.0
2014-Sep-20 00:31N 54°18' W 130°21'0 0.0
2014-Sep-19 23:31N 54°18' W 130°21'0 0.0
2014-Sep-19 22:31N 54°18' W 130°21'0 0.0
2014-Sep-19 21:31N 54°18' W 130°21'0 0.0
2014-Sep-19 20:31N 54°18' W 130°21'0 0.0
2014-Sep-19 19:31N 54°18' W 130°21'0 0.0
2014-Sep-19 18:31N 54°18' W 130°21'0 0.0
2014-Sep-19 17:31N 54°18' W 130°21'0 0.0
2014-Sep-19 16:31N 54°18' W 130°21'0 0.0
2014-Sep-19 15:31N 54°18' W 130°21'0 0.0
2014-Sep-19 14:31N 54°18' W 130°21'0 0.0
2014-Sep-19 13:31N 54°18' W 130°21'0 0.0
2014-Sep-19 12:31N 54°18' W 130°21'0 0.0
2014-Sep-19 11:31N 54°18' W 130°21'0 0.0
2014-Sep-19 10:31N 54°18' W 130°21'0 0.0
2014-Sep-19 09:31N 54°18' W 130°21'0 0.0
2014-Sep-19 08:31N 54°18' W 130°21'0 0.0
2014-Sep-19 07:34N 54°18' W 130°21'2 1.5
2014-Sep-19 06:31N 54°19' W 130°19'0 0.0
2014-Sep-19 05:31N 54°19' W 130°19'0 0.0
2014-Sep-19 04:31N 54°19' W 130°19'1 1.1
2014-Sep-19 03:33N 54°19' W 130°20'1 0.6
2014-Sep-19 02:33N 54°18' W 130°21'2 1.6
2014-Sep-19 01:33N 54°17' W 130°22'4 4.1
2014-Sep-19 00:32N 54°14' W 130°28'7 6.7
2014-Sep-18 23:33N 54°20' W 130°35'7 7.4
2014-Sep-18 22:33N 54°27' W 130°39'18 6.9
2014-Sep-18 20:00N 54°42' W 130°54'268 6.6 140 / 20996.3 5.4 0.514.4
2014-Sep-17 03:32N 58°18' W 135°44'8 7.6
2014-Sep-17 02:33N 58°16' W 135°58'235 7.7
2014-Sep-15 20:00N 59°24' W 143°12'   140 / 131007.0 5.4 0.515.6
Track history (hours):
 
Tides and Currents Weather Stations Pressure Air Temp Water Temp Dewpoint Dewpoint Depression Visibility Wind Speed Wind Dir Waves Ship Positions

Barbara Foss

More information available from US FCC via Universal Licensing System and Coast Guard Vessel Documentation Center.

Last reported at 2014-Sep-23 20:00 UTC. Time now 2014-Sep-24 00:27 UTC.
Position N 59°24' W 141°48'.

Length 39 m; draft 5.5 m.

Type: Tow > 200 m length. MMSI: 366932130.

Wind from 100 at 5 knots

Barometer 1010.4 mb
Air temperature 15.6 ° C
Visibility: greater than 5.4 NM

Date/timePositionNaut miles runAvg speedWind from/ knotsBaromVisibWave heightAir tempDewpointWater temp
2014-Sep-23 20:00N 59°24' W 141°48'163 7.4 100 / 51010.4 5.4 15.6
2014-Sep-22 22:00N 58°18' W 137°00'35 4.7 180 / 181007.1 5.4 0.514.4
2014-Sep-22 14:25N 58°17' W 135°53'5 5.8
2014-Sep-22 13:33N 58°18' W 135°43'  
2014-Sep-20 04:31N 54°23' W 130°37'8 8.3
2014-Sep-20 03:33N 54°16' W 130°31'6 4.8
2014-Sep-20 02:23N 54°16' W 130°21'2 2.7
2014-Sep-20 01:31N 54°18' W 130°21'0 0.0
2014-Sep-20 00:31N 54°18' W 130°21'0 0.0
2014-Sep-19 23:31N 54°18' W 130°21'0 0.0
2014-Sep-19 22:31N 54°18' W 130°21'0 0.0
2014-Sep-19 21:31N 54°18' W 130°21'0 0.0
2014-Sep-19 20:31N 54°18' W 130°21'0 0.0
2014-Sep-19 19:31N 54°18' W 130°21'0 0.0
2014-Sep-19 18:31N 54°18' W 130°21'0 0.0
2014-Sep-19 17:31N 54°18' W 130°21'0 0.0
2014-Sep-19 16:31N 54°18' W 130°21'0 0.0
2014-Sep-19 15:31N 54°18' W 130°21'0 0.0
2014-Sep-19 14:31N 54°18' W 130°21'0 0.0
2014-Sep-19 13:31N 54°18' W 130°21'0 0.0
2014-Sep-19 12:31N 54°18' W 130°21'0 0.0
2014-Sep-19 11:31N 54°18' W 130°21'0 0.0
2014-Sep-19 10:31N 54°18' W 130°21'0 0.0
2014-Sep-19 09:31N 54°18' W 130°21'0 0.0
2014-Sep-19 08:31N 54°18' W 130°21'0 0.0
2014-Sep-19 07:34N 54°18' W 130°21'2 1.5
2014-Sep-19 06:31N 54°19' W 130°19'0 0.0
2014-Sep-19 05:31N 54°19' W 130°19'0 0.0
2014-Sep-19 04:31N 54°19' W 130°19'1 1.1
2014-Sep-19 03:33N 54°19' W 130°20'1 0.6
2014-Sep-19 02:33N 54°18' W 130°21'2 1.6
2014-Sep-19 01:33N 54°17' W 130°22'4 4.1
2014-Sep-19 00:32N 54°14' W 130°28'7 6.7
2014-Sep-18 23:33N 54°20' W 130°35'7 7.4
2014-Sep-18 22:33N 54°27' W 130°39'18 6.9
2014-Sep-18 20:00N 54°42' W 130°54'268 6.6 140 / 20996.3 5.4 0.514.4
2014-Sep-17 03:32N 58°18' W 135°44'8 7.6
2014-Sep-17 02:33N 58°16' W 135°58'235 7.7
2014-Sep-15 20:00N 59°24' W 143°12'   140 / 131007.0 5.4 0.515.6

Dump ship's entire track history